Terminal Aerodrome Forecast
Issued by NWS Wilmington, OH

Current Version | Previous Version | Graphics & Text | Print | Product List | Glossary On
Versions: 1 2 3 4 5 6 7 8 9 10 11 12 13 14 15 16 17 18 19 20 21 22 23 24 25 26 27
000
FTUS41 KILN 201727
TAFCVG
TAF
KCVG 201727Z 2018/2124 23011G17KT P6SM BKN120
     FM202100 22008KT P6SM OVC025
     FM210000 21007KT P6SM OVC012
     FM210200 20006KT 5SM BR VCSH OVC008
     FM211200 19007KT 5SM BR OVC009
     FM211400 19008KT P6SM OVC012
     FM211900 19010KT P6SM OVC018=

USA.gov is the U.S. government's official web portal to all federal, state and local government web resources and services.